Terminal Aerodrome Forecast
Issued by NWS

Home | Current Version | Previous Version | Graphics & Text | Print | Product List | Glossary On
Versions: 1 2 3 4 5 6 7 8 9 10 11 12 13 14 15 16 17
000
FTUS43 KTOP 251100
TAFFOE
TAF
KFOE 251137Z 2512/2612 24008KT P6SM -SHRA SCT025 BKN040
     FM251500 33012G20KT P6SM BKN025 OVC050
     FM260000 01009KT P6SM OVC013
     FM260800 04008KT P6SM OVC007=

USA.gov is the U.S. government's official web portal to all federal, state and local government web resources and services.